Data for 05/16/2013

Time Sea-Level Adjusted Pressure Absolute Pressure Temperature Relative Humidity Dew Point   
(mb) (inHg) (mb) (inHg) (C) (F) (%) (C) (F)
00:05 1014 29.94 843 24.89 11.5 52.7 54 2.6 36.6
00:10 1014 29.94 843 24.89 11.4 52.6 54 2.4 36.3
00:15 1014 29.94 843 24.89 11.4 52.4 54 2.5 36.4
00:20 1014 29.94 843 24.89 11.3 52.3 54 2.4 36.4
00:25 1014 29.94 843 24.89 11.1 52 55 2.4 36.4
00:30 1014 29.94 843 24.89 10.9 51.6 56 2.4 36.4
00:35 1014 29.94 843 24.89 10.6 51.1 56 2.3 36.2
00:40 1014 29.94 843 24.89 10.3 50.5 57 2.1 35.8
00:45 1014 29.94 843 24.89 10.4 50.6 57 2.2 36
00:50 1014 29.94 843 24.89 10.2 50.3 56 1.8 35.3
00:55 1014 29.94 843 24.89 10.5 50.9 56 2.1 35.8
01:00 1014 29.94 843 24.89 10.6 51.1 56 2.2 36
01:05 1014 29.94 844 24.92 10.3 50.6 55 1.8 35.2
01:10 1014 29.94 844 24.92 10.7 51.2 54 1.9 35.4
01:15 1014 29.94 844 24.92 10.5 50.9 54 1.6 34.9
01:20 1014 29.94 844 24.92 10.4 50.8 53 1.3 34.4
01:25 1014 29.94 844 24.92 10.5 50.8 53 1.3 34.4
01:30 1014 29.94 844 24.92 10.1 50.2 55 1.4 34.6
01:35 1014 29.94 844 24.92 9.7 49.5 56 1.4 34.6
01:40 1014 29.94 843 24.89 9.6 49.3 55 1 33.7
01:45 1014 29.94 843 24.89 9.5 49.1 56 1.3 34.3
01:50 1014 29.94 843 24.89 9.2 48.5 57 1.2 34.2
01:55 1014 29.94 843 24.89 8.9 48.1 56 0.6 33
02:00 1014 29.94 844 24.92 8.8 47.8 56 0.5 32.9
02:05 1014 29.94 844 24.92 8.7 47.6 56 0.5 32.9
02:10 1014 29.94 844 24.92 8.7 47.6 57 0.6 33
02:15 1014 29.94 844 24.92 8.7 47.6 56 0.4 32.8
02:20 1014 29.94 844 24.92 8.8 47.8 55 0.3 32.6
02:25 1014 29.94 844 24.92 8.9 47.9 55 0.4 32.8
02:30 1014 29.94 844 24.92 8.8 47.9 55 0.4 32.7
02:35 1014 29.94 844 24.92 8.8 47.8 56 0.5 33
02:40 1014 29.94 844 24.92 8.8 47.8 56 0.4 32.8
02:45 1014 29.94 844 24.92 8.8 47.8 56 0.5 32.9
02:50 1014 29.94 844 24.92 8.8 47.9 55 0.4 32.7
02:55 1014 29.94 844 24.92 9 48.2 55 0.4 32.8
03:00 1014 29.94 844 24.92 9 48.3 55 0.5 32.9
03:05 1014 29.94 844 24.92 9 48.1 56 0.6 33.2
03:10 1014 29.94 844 24.92 8.8 47.9 56 0.6 33.1
03:15 1015 29.97 844 24.92 8.7 47.7 57 0.6 33
03:20 1015 29.97 844 24.92 8.7 47.6 56 0.4 32.8
03:25 1014 29.94 844 24.92 8.8 47.8 55 0.4 32.7
03:30 1014 29.94 844 24.92 9 48.1 55 0.4 32.7
03:35 1014 29.94 844 24.92 9.2 48.5 54 0.4 32.7
03:40 1015 29.97 844 24.92 9.3 48.7 54 0.6 33
03:45 1015 29.97 844 24.92 9.3 48.7 54 0.5 32.9
03:50 1015 29.97 844 24.92 9.4 48.9 54 0.5 32.9
03:55 1015 29.97 844 24.92 9.4 48.9 54 0.5 32.9
04:00 1015 29.97 844 24.92 9.4 49 54 0.7 33.3
04:05 1015 29.97 844 24.92 9.5 49 54 0.8 33.4
04:10 1015 29.97 844 24.92 9.5 49 56 1.1 33.9
04:15 1015 29.97 844 24.92 9.3 48.7 56 1 33.9
04:20 1014 29.94 844 24.92 9.1 48.4 59 1.5 34.7
04:25 1014 29.94 844 24.92 9.1 48.3 59 1.6 34.9
04:30 1014 29.94 844 24.92 9 48.2 63 2.4 36.2
04:35 1014 29.94 844 24.92 8.9 48 64 2.6 36.6
04:40 1014 29.94 844 24.92 8.8 47.8 64 2.3 36.1
04:45 1014 29.94 844 24.92 8.6 47.5 67 2.9 37.2
04:50 1014 29.94 844 24.92 8.5 47.2 70 3.3 37.9
04:55 1014 29.94 844 24.92 8.4 47.1 66 2.5 36.5
05:00 1014 29.94 844 24.92 8.3 47 67 2.6 36.7
05:05 1014 29.94 844 24.92 8.3 46.9 65 2.1 35.7
05:10 1014 29.94 844 24.92 8.3 46.9 66 2.2 36
05:15 1014 29.94 844 24.92 8.3 46.9 64 1.8 35.3
05:20 1014 29.94 844 24.92 8.3 47 67 2.6 36.7
05:25 1014 29.94 844 24.92 8.2 46.8 68 2.8 37
05:30 1014 29.94 844 24.92 8.1 46.6 68 2.6 36.7
05:35 1014 29.94 844 24.92 8.1 46.6 67 2.5 36.4
05:40 1014 29.94 844 24.92 8.1 46.5 69 2.7 36.8
05:45 1014 29.94 844 24.92 8 46.4 69 2.7 36.9
05:50 1015 29.97 844 24.92 8 46.3 69 2.7 36.8
05:55 1015 29.97 844 24.92 8 46.4 69 2.7 36.9
06:00 1015 29.97 844 24.92 8 46.4 69 2.6 36.7
06:05 1015 29.97 844 24.92 8.1 46.5 69 2.8 37.1
06:10 1015 29.97 844 24.92 8.2 46.7 67 2.5 36.5
06:15 1015 29.97 844 24.92 8.3 46.9 68 2.7 36.9
06:20 1015 29.97 844 24.92 8.4 47.1 69 3 37.4
06:25 1015 29.97 844 24.92 8.8 47.9 68 3.3 37.9
06:30 1015 29.97 844 24.92 9 48.2 67 3.1 37.6
06:35 1015 29.97 844 24.92 8.9 48 67 3.2 37.7
06:40 1015 29.97 844 24.92 9 48.3 67 3.3 37.9
06:45 1015 29.97 844 24.92 9.2 48.6 64 2.9 37.1
06:50 1015 29.97 844 24.92 9.3 48.8 63 2.6 36.8
06:55 1015 29.97 844 24.92 9.2 48.6 64 2.8 37
07:00 1015 29.97 844 24.92 9.2 48.5 66 3.3 37.9
07:05 1015 29.97 844 24.92 9.3 48.8 66 3.3 37.9
07:10 1015 29.97 844 24.92 9.7 49.5 64 3.3 37.9
07:15 1015 29.97 844 24.92 9.8 49.6 63 3.2 37.7
07:20 1015 29.97 844 24.92 9.9 49.8 64 3.4 38.1
07:25 1015 29.97 844 24.92 9.9 49.8 61 2.7 36.8
07:30 1015 29.97 844 24.92 10.1 50.3 59 2.5 36.5
07:35 1015 29.97 844 24.92 10.6 51.1 58 2.8 37
07:40 1015 29.97 844 24.92 11.2 52.1 56 2.8 37.1
07:45 1014 29.94 844 24.92 11.5 52.6 55 2.8 37
07:50 1014 29.94 844 24.92 11.7 53.1 51 1.9 35.5
07:55 1014 29.94 844 24.92 11.5 52.7 52 2 35.5
08:00 1014 29.94 844 24.92 11.7 53.1 49 1.5 34.7
08:05 1014 29.94 844 24.92 11.9 53.5 49 1.7 35.1
08:10 1014 29.94 844 24.92 12.1 53.8 49 1.8 35.3
08:15 1014 29.94 844 24.92 12.4 54.2 48 1.8 35.2
08:20 1014 29.94 844 24.92 12.6 54.6 47 1.7 35.1
08:25 1014 29.94 844 24.92 12.9 55.2 47 1.8 35.3
08:30 1014 29.94 844 24.92 13 55.4 47 2.2 35.9
08:35 1014 29.94 844 24.92 12.9 55.2 47 1.9 35.4
08:40 1014 29.94 844 24.92 13.5 56.4 45 1.9 35.5
08:45 1014 29.94 844 24.92 13.9 57 46 2.4 36.3
08:50 1014 29.94 844 24.92 14.1 57.3 44 2.2 36
08:55 1014 29.94 843 24.89 14.7 58.4 42 2.1 35.8
09:00 1014 29.94 843 24.89 14.8 58.7 44 2.7 36.8
09:05 1014 29.94 843 24.89 14.9 58.9 42 2.2 36
09:10 1014 29.94 843 24.89 15.5 59.9 38 1.4 34.5
09:15 1014 29.94 843 24.89 16.2 61.1 35 0.7 33.2
09:20 1014 29.94 843 24.89 16.3 61.3 35 1 33.8
09:25 1014 29.94 843 24.89 15.7 60.2 36 0.7 33.2
09:30 1014 29.94 843 24.89 15.8 60.4 37 1 33.9
09:35 1014 29.94 843 24.89 16 60.8 39 2.1 35.7
09:40 1014 29.94 843 24.89 15.4 59.8 38 1.4 34.6
09:45 1014 29.94 843 24.89 15.6 60 37 1.1 33.9
09:50 1014 29.94 843 24.89 15.7 60.2 38 1.4 34.6
09:55 1014 29.94 843 24.89 15.8 60.4 38 1.6 34.8
10:00 1014 29.94 843 24.89 16.4 61.6 37 1.8 35.2
10:05 1014 29.94 843 24.89 16.6 61.9 38 2.4 36.3
10:10 1014 29.94 843 24.89 16.8 62.2 35 1.2 34.1
10:15 1014 29.94 843 24.89 17.2 63 36 2.1 35.8
10:20 1014 29.94 843 24.89 17.6 63.6 34 1.7 35.1
10:25 1014 29.94 843 24.89 17.3 63.2 36 2.3 36.1
10:30 1014 29.94 843 24.89 16.7 62 36 1.6 34.9
10:35 1014 29.94 843 24.89 16.6 61.9 37 1.8 35.3
10:40 1014 29.94 843 24.89 16.7 62 35 1.3 34.4
10:45 1014 29.94 843 24.89 16.9 62.4 34 0.9 33.6
10:50 1014 29.94 843 24.89 16.7 62 35 1.3 34.4
10:55 1014 29.94 843 24.89 16.8 62.2 34 0.9 33.6
11:00 1014 29.94 843 24.89 16.8 62.2 34 0.9 33.7
11:05 1014 29.94 843 24.89 16.7 62 34 0.9 33.5
11:10 1014 29.94 843 24.89 16.5 61.7 35 1.1 33.9
11:15 1014 29.94 843 24.89 16.2 61.1 37 1.4 34.5
11:20 1014 29.94 843 24.89 16.1 61 36 1.2 34.2
11:25 1014 29.94 843 24.89 16.3 61.4 36 1.2 34.2
11:30 1014 29.94 843 24.89 16.5 61.6 35 1 33.7
11:35 1014 29.94 843 24.89 16.4 61.5 35 0.9 33.7
11:40 1014 29.94 843 24.89 16.4 61.5 34 0.6 33
11:45 1013 29.91 843 24.89 17 62.6 33 0.5 33
11:50 1013 29.91 843 24.89 17.8 64.1 32 0.9 33.5
11:55 1013 29.91 843 24.89 17.8 64 32 1.2 34.1
12:00 1013 29.91 843 24.89 17.6 63.7 33 1.4 34.5
12:05 1013 29.91 842 24.86 17.5 63.4 32 0.7 33.3
12:10 1013 29.91 843 24.89 17.6 63.6 32 0.8 33.4
12:15 1013 29.91 843 24.89 17.9 64.2 31 0.7 33.2
12:20 1013 29.91 842 24.86 18.3 64.9 31 1.2 34.1
12:25 1013 29.91 842 24.86 18.2 64.7 31 1.1 33.9
12:30 1013 29.91 842 24.86 18.4 65.1 30 0.5 33
12:35 1013 29.91 842 24.86 18.2 64.8 30 0.4 32.7
12:40 1013 29.91 842 24.86 17.8 64.1 31 0.7 33.3
12:45 1013 29.91 842 24.86 17.9 64.1 32 1.3 34.3
12:50 1013 29.91 842 24.86 18.2 64.8 32 1.5 34.7
12:55 1013 29.91 842 24.86 18 64.5 32 1.4 34.5
13:00 1013 29.91 842 24.86 18 64.4 32 1.2 34.2
13:05 1013 29.91 842 24.86 17.9 64.1 33 1.5 34.7
13:10 1013 29.91 842 24.86 17.7 63.9 34 1.6 34.9
13:15 1013 29.91 842 24.86 17.8 64 33 1.3 34.4
13:20 1013 29.91 842 24.86 17.4 63.3 34 1.3 34.3
13:25 1013 29.91 842 24.86 17 62.5 34 1.1 34.1
13:30 1013 29.91 842 24.86 17.2 62.9 33 1.1 34
13:35 1013 29.91 842 24.86 17.7 63.8 33 1.4 34.4
13:40 1013 29.91 842 24.86 17.7 63.9 33 1.5 34.6
13:45 1013 29.91 842 24.86 17.4 63.4 33 1.3 34.4
13:50 1013 29.91 842 24.86 17.2 63 33 1.1 34
13:55 1013 29.91 842 24.86 16.6 62 35 1.2 34.2
14:00 1013 29.91 842 24.86 16 60.7 46 4.6 40.2
14:05 1013 29.91 842 24.86 14.9 58.9 49 4.4 39.8
14:10 1013 29.91 842 24.86 14.5 58.1 52 4.9 40.8
14:15 1013 29.91 842 24.86 13.9 57 53 4.5 40.1
14:20 1013 29.91 842 24.86 13.9 57 51 4 39.3
14:25 1013 29.91 842 24.86 14 57.2 51 4.1 39.4
14:30 1013 29.91 842 24.86 14.2 57.6 50 4.1 39.4
14:35 1013 29.91 842 24.86 14.5 58.1 48 3.6 38.5
14:40 1013 29.91 842 24.86 14.6 58.3 49 4 39.2
14:45 1013 29.91 842 24.86 14.5 58 47 3.5 38.3
14:50 1013 29.91 842 24.86 14.8 58.6 45 3.1 37.6
14:55 1013 29.91 842 24.86 14.7 58.4 45 3.1 37.5
15:00 1013 29.91 842 24.86 14.7 58.5 44 2.7 36.8
15:05 1013 29.91 842 24.86 14.8 58.6 43 2.3 36.2
15:10 1013 29.91 842 24.86 15.1 59.2 45 3.3 37.9
15:15 1013 29.91 842 24.86 15.2 59.3 42 2.6 36.6
15:20 1013 29.91 842 24.86 15.8 60.4 39 1.9 35.5
15:25 1013 29.91 842 24.86 15.6 60.1 40 2.2 36
15:30 1013 29.91 842 24.86 15.2 59.3 41 2.2 36
15:35 1013 29.91 842 24.86 15.4 59.8 41 2.3 36.2
15:40 1013 29.91 842 24.86 15.4 59.7 41 2.4 36.3
15:45 1013 29.91 842 24.86 15.4 59.7 41 2.4 36.4
15:50 1013 29.91 842 24.86 15.4 59.7 43 3 37.4
15:55 1013 29.91 842 24.86 15.6 60.2 39 1.7 35.1
16:00 1013 29.91 842 24.86 15.7 60.3 38 1.4 34.6
16:05 1013 29.91 842 24.86 16 60.8 39 2.1 35.8
16:10 1013 29.91 842 24.86 16.1 60.9 38 1.8 35.2
16:15 1013 29.91 842 24.86 16.3 61.3 39 2.3 36.1
16:20 1013 29.91 842 24.86 16.2 61.2 39 2.5 36.5
16:25 1013 29.91 842 24.86 16 60.8 40 2.4 36.3
16:30 1013 29.91 842 24.86 15.8 60.5 41 2.7 36.9
16:35 1013 29.91 842 24.86 15.7 60.3 42 2.9 37.3
16:40 1013 29.91 843 24.89 15.7 60.3 43 3.3 37.9
16:45 1014 29.94 843 24.89 14.2 57.5 66 8 46.4
16:50 1014 29.94 844 24.92 11.4 52.5 79 7.9 46.2
16:55 1015 29.97 844 24.92 9.9 49.9 86 7.7 45.9
17:00 1015 29.97 844 24.92 9.2 48.6 90 7.6 45.7
17:05 1015 29.97 844 24.92 8.8 47.9 91 7.4 45.3
17:10 1015 29.97 844 24.92 8.6 47.5 91 7.2 45
17:15 1015 29.97 844 24.92 8.7 47.6 91 7.3 45.1
17:20 1015 29.97 844 24.92 8.6 47.5 91 7.3 45.1
17:25 1015 29.97 844 24.92 8.6 47.5 91 7.2 45
17:30 1015 29.97 844 24.92 8.6 47.5 91 7.3 45.1
17:35 1015 29.97 844 24.92 8.6 47.5 91 7.3 45.2
17:40 1015 29.97 844 24.92 8.7 47.6 91 7.4 45.2
17:45 1015 29.97 844 24.92 8.7 47.7 91 7.3 45.1
17:50 1015 29.97 844 24.92 8.8 47.8 91 7.5 45.4
17:55 1015 29.97 844 24.92 8.9 48 91 7.4 45.4
18:00 1015 29.97 844 24.92 8.9 48 91 7.5 45.4
18:05 1015 29.97 844 24.92 8.9 48 90 7.3 45.1
18:10 1015 29.97 844 24.92 9 48.1 89 7.3 45.2
18:15 1015 29.97 844 24.92 9 48.2 90 7.4 45.4
18:20 1015 29.97 844 24.92 8.9 48.1 89 7.2 44.9
18:25 1015 29.97 844 24.92 8.9 48 90 7.3 45.2
18:30 1015 29.97 844 24.92 9 48.1 89 7.2 45
18:35 1015 29.97 844 24.92 9 48.1 89 7.2 44.9
18:40 1015 29.97 844 24.92 8.9 48.1 88 7.1 44.9
18:45 1015 29.97 844 24.92 8.9 48.1 88 7.1 44.7
18:50 1015 29.97 844 24.92 8.8 47.9 88 6.9 44.4
18:55 1015 29.97 844 24.92 8.6 47.4 88 6.7 44
19:00 1015 29.97 844 24.92 8.6 47.4 89 6.8 44.3
19:05 1015 29.97 844 24.92 8.7 47.7 89 7 44.6
19:10 1015 29.97 844 24.92 8.7 47.7 86 6.6 43.8
19:15 1015 29.97 844 24.92 8.6 47.4 86 6.4 43.5
19:20 1015 29.97 844 24.92 8.6 47.5 86 6.4 43.4
19:25 1015 29.97 844 24.92 8.7 47.6 85 6.2 43.2
19:30 1015 29.97 844 24.92 8.7 47.6 86 6.4 43.5
19:35 1015 29.97 844 24.92 8.7 47.6 87 6.6 43.8
19:40 1015 29.97 844 24.92 8.7 47.6 85 6.3 43.4
19:45 1015 29.97 844 24.92 8.7 47.6 85 6.3 43.3
19:50 1015 29.97 844 24.92 8.7 47.6 85 6.3 43.4
19:55 1015 29.97 844 24.92 8.7 47.6 85 6.4 43.4
20:00 1015 29.97 844 24.92 8.7 47.6 87 6.6 43.9
20:05 1015 29.97 844 24.92 8.7 47.7 85 6.4 43.5
20:10 1015 29.97 844 24.92 8.7 47.6 86 6.4 43.6
20:15 1015 29.97 844 24.92 8.6 47.5 86 6.4 43.6
20:20 1015 29.97 844 24.92 8.6 47.5 85 6.2 43.2
20:25 1015 29.97 844 24.92 8.7 47.6 85 6.3 43.3
20:30 1015 29.97 844 24.92 8.7 47.6 84 6.1 43
20:35 1015 29.97 844 24.92 8.7 47.6 85 6.4 43.5
20:40 1015 29.97 844 24.92 8.6 47.5 87 6.6 43.8
20:45 1015 29.97 844 24.92 8.6 47.4 87 6.6 43.9
20:50 1015 29.97 844 24.92 8.5 47.2 90 7 44.5
20:55 1015 29.97 844 24.92 8.2 46.8 91 6.8 44.2
21:00 1015 29.97 845 24.95 8.2 46.7 90 6.6 44
21:05 1015 29.97 845 24.95 8.2 46.7 89 6.5 43.8
21:10 1015 29.97 845 24.95 8.2 46.8 89 6.6 43.8
21:15 1015 29.97 844 24.92 8.2 46.7 89 6.4 43.5
21:20 1015 29.97 844 24.92 8.2 46.7 87 6.1 43
21:25 1015 29.97 844 24.92 8.2 46.8 87 6.1 43
21:30 1015 29.97 844 24.92 8.2 46.8 86 6 42.8
21:35 1015 29.97 844 24.92 8.2 46.8 88 6.4 43.5
21:40 1015 29.97 844 24.92 8.2 46.7 90 6.6 43.8
21:45 1015 29.97 844 24.92 8 46.4 91 6.5 43.8
21:50 1015 29.97 844 24.92 7.9 46.3 90 6.5 43.6
21:55 1015 29.97 844 24.92 7.9 46.2 90 6.4 43.5
22:00 1015 29.97 844 24.92 7.8 46.1 89 6.2 43.1
22:05 1015 29.97 844 24.92 7.9 46.2 89 6.1 43.1
22:10 1015 29.97 844 24.92 7.9 46.2 89 6.2 43.1
22:15 1015 29.97 844 24.92 7.9 46.2 89 6.2 43.2
22:20 1015 29.97 844 24.92 8 46.3 88 6.1 43
22:25 1015 29.97 844 24.92 8 46.4 88 6.2 43.1
22:30 1015 29.97 844 24.92 8 46.5 88 6.1 43
22:35 1015 29.97 844 24.92 8 46.5 88 6.1 43
22:40 1015 29.97 844 24.92 8 46.4 88 6.2 43.2
22:45 1015 29.97 844 24.92 8 46.4 89 6.2 43.2
22:50 1015 29.97 844 24.92 8 46.3 89 6.3 43.3
22:55 1015 29.97 844 24.92 8 46.4 89 6.3 43.4
23:00 1015 29.97 844 24.92 8 46.4 89 6.3 43.3
23:05 1015 29.97 844 24.92 7.9 46.3 90 6.4 43.4
23:10 1015 29.97 844 24.92 7.9 46.2 90 6.4 43.5
23:15 1015 29.97 844 24.92 7.9 46.1 91 6.4 43.6
23:20 1015 29.97 844 24.92 7.9 46.2 90 6.3 43.4
23:25 1015 29.97 844 24.92 7.9 46.3 89 6.3 43.3
23:30 1015 29.97 844 24.92 8 46.4 88 6.2 43.1
23:35 1015 29.97 844 24.92 8 46.4 88 6.2 43.2
23:40 1015 29.97 844 24.92 8.1 46.6 87 6.1 43.1
23:45 1015 29.97 844 24.92 8.2 46.7 88 6.2 43.2
23:50 1015 29.97 844 24.92 8.1 46.6 89 6.4 43.5
23:55 1015 29.97 844 24.92 8 46.4 89 6.4 43.5
24:00 1015 29.97 844 24.92 8 46.3 90 6.4 43.4